This is the latest recevied weather packets stored in our database for station/object WMKK. If no packets are shown the sender has not sent any weather packets the latest 10 day(s).
| Time | Temp. | Humidity | Pressure | Rain* | Wind** | Luminosity | Snow |
|---|---|---|---|---|---|---|---|
| 1777957826 | 31.67° C | 70% | 1008 hPa | - | - | - | - |
| 1777956002 | 31.67° C | 66% | 1008 hPa | - | - | - | - |
| 1777954219 | 31.67° C | 70% | 1009 hPa | - | - | - | - |
| 1777952402 | 31.67° C | 66% | 1009 hPa | - | - | - | - |
| 1777950621 | 30.56° C | 70% | 1009 hPa | - | - | - | - |
| 1777948808 | 30.56° C | 70% | 1009 hPa | - | - | - | - |
| 1777947023 | 30.56° C | 70% | 1009 hPa | - | - | - | - |
| 1777945202 | 28.89° C | 79% | 1009 hPa | - | - | - | - |
| 1777943419 | 27.78° C | 83% | 1009 hPa | - | - | - | - |
| 1777941601 | 26.67° C | 88% | 1008 hPa | - | - | - | - |
| 1777939827 | 25.56° C | 94% | 1008 hPa | - | - | - | - |
| 1777938002 | 25° C | 94% | 1008 hPa | - | - | - | - |
| 1777936221 | 25° C | 94% | 1008 hPa | - | - | - | - |
| 1777934408 | 25° C | 94% | 1008 hPa | - | - | - | - |
| 1777932619 | 25° C | 94% | 1007 hPa | - | - | - | - |
| 1777930805 | 25.56° C | 88% | 1007 hPa | - | - | - | - |
| 1777929019 | 25° C | 10% | - | - | - | - | - |
| 1777927203 | 25° C | 10% | - | - | - | - | - |
| 1777925420 | 25.56° C | 94% | 1007 hPa | - | - | - | - |
| 1777923601 | 25.56° C | 94% | 1008 hPa | - | - | - | - |
| 1777921827 | 25.56° C | 94% | 1008 hPa | - | - | - | - |
| 1777920004 | 25.56° C | 94% | 1008 hPa | - | - | - | - |
| 1777918224 | 25° C | 10% | - | - | - | - | - |
| 1777916404 | 25° C | 10% | - | - | - | - | - |
| 1777914620 | 25.56° C | 94% | 1009 hPa | - | - | - | - |
* Rain since midnight (hover to see other rain measurements)
** Current wind speed in m/s (hover to see current wind gust speed)